Cochise — WDD8952 — position and weather

sailwx.info

Track history (hours):
 
Tides and Currents Weather Stations Pressure Air Temp Water Temp Dewpoint Dewpoint Depression Visibility Wind Speed Wind Dir Waves Ship Positions

Cochise

Owner: Sause Bros, Coos Bay, OR. More information available from US FCC via Universal Licensing System and Coast Guard Vessel Documentation Center.

Last reported at 2014-Dec-19 21:29 UTC. Time now 2014-Dec-19 21:41 UTC.
Position N 38°03' W 122°06'.

Length 32 m; draft 4.5 m.

Type: Towing. MMSI: 367304990.

Date/timePositionNaut miles runAvg speedWind from/ knotsBaromVisibWave heightAir tempDewpointWater temp
2014-Dec-19 21:29N 38°03' W 122°06'2 2.3
2014-Dec-19 20:33N 38°02' W 122°08'8 8.3
2014-Dec-19 19:33N 38°03' W 122°19'9 8.6
2014-Dec-19 18:33N 37°57' W 122°26'2 1.5
2014-Dec-19 17:28N 37°55' W 122°25'0 0.0
2014-Dec-19 16:31N 37°55' W 122°25'0 0.0
2014-Dec-19 15:31N 37°55' W 122°25'0 0.0
2014-Dec-19 14:31N 37°55' W 122°25'0 0.0
2014-Dec-19 13:31N 37°55' W 122°25'0 0.0
2014-Dec-19 12:31N 37°55' W 122°25'0 0.0
2014-Dec-19 11:31N 37°55' W 122°25'0 0.0
2014-Dec-19 10:31N 37°55' W 122°25'0 0.0
2014-Dec-19 09:31N 37°55' W 122°25'0 0.0
2014-Dec-19 08:31N 37°55' W 122°25'0 0.0
2014-Dec-19 07:31N 37°55' W 122°25'0 0.0
2014-Dec-19 06:31N 37°55' W 122°25'0 0.0
2014-Dec-19 05:31N 37°55' W 122°25'0 0.0
2014-Dec-19 04:31N 37°55' W 122°25'0 0.0
2014-Dec-19 03:31N 37°55' W 122°25'0 0.0
2014-Dec-19 02:31N 37°55' W 122°25'0 0.0
2014-Dec-19 01:31N 37°55' W 122°25'0 0.0
2014-Dec-19 00:31N 37°55' W 122°25'0 0.0
2014-Dec-18 23:31N 37°55' W 122°25'0 0.0
2014-Dec-18 22:31N 37°55' W 122°25'0 0.0
2014-Dec-18 21:31N 37°55' W 122°25'0 0.0
2014-Dec-18 20:31N 37°55' W 122°25'0 0.0
2014-Dec-18 19:31N 37°55' W 122°25'0 0.3
2014-Dec-18 18:34N 37°55' W 122°25'2 1.6
2014-Dec-18 17:33N 37°54' W 122°26'8 7.9
2014-Dec-18 16:34N 37°48' W 122°32'9 8.6
2014-Dec-18 15:29N 37°41' W 122°39'318 6.9
2014-Dec-16 17:31N 33°45' W 118°16'0 0.2
2014-Dec-16 16:22N 33°45' W 118°17'0 0.0
2014-Dec-16 13:13N 33°45' W 118°17'0 0.0
2014-Dec-16 09:28N 33°45' W 118°17'0 0.0
2014-Dec-16 08:04N 33°45' W 118°17'0 0.0
2014-Dec-16 07:16N 33°45' W 118°17'0 0.0
2014-Dec-16 06:31N 33°45' W 118°17'0 0.0
2014-Dec-16 04:22N 33°45' W 118°17'0 0.0
2014-Dec-15 21:07N 33°45' W 118°17'0 0.2
2014-Dec-15 20:32N 33°45' W 118°17'209 6.6
2014-Dec-14 13:06N 35°24' W 121°60'5 8.8
2014-Dec-14 12:33N 35°29' W 122°02'9 8.6
2014-Dec-14 11:33N 35°36' W 122°08'9 8.6
2014-Dec-14 10:32N 35°43' W 122°14'9 8.8
2014-Dec-14 09:33N 35°51' W 122°19'9 8.8
2014-Dec-14 08:33N 35°58' W 122°25'9 9.0
2014-Dec-14 07:33N 36°06' W 122°30'9 9.0
2014-Dec-14 06:33N 36°15' W 122°34'9 9.4
2014-Dec-14 05:33N 36°23' W 122°38'9 9.1
2014-Dec-14 04:31N 36°32' W 122°42'9 9.0
2014-Dec-14 03:29N 36°41' W 122°47'11 9.0
2014-Dec-14 02:17N 36°51' W 122°51'48 8.3
2014-Dec-13 20:33N 37°39' W 122°47'8 8.4
2014-Dec-13 19:33N 37°45' W 122°40'9 9.0
2014-Dec-13 18:33N 37°49' W 122°30'6 6.5
2014-Dec-13 17:34N 37°55' W 122°26'1 1.0
2014-Dec-13 16:32N 37°55' W 122°25'0 0.0
2014-Dec-13 15:32N 37°55' W 122°25'0 0.0
2014-Dec-13 14:32N 37°55' W 122°25'0 0.0
2014-Dec-13 13:32N 37°55' W 122°25'0 0.0
2014-Dec-13 12:32N 37°55' W 122°25'0 0.0
2014-Dec-13 11:32N 37°55' W 122°25'0 0.0
2014-Dec-13 10:32N 37°55' W 122°25'0 0.0
2014-Dec-13 09:32N 37°55' W 122°25'0 0.0
2014-Dec-13 08:32N 37°55' W 122°25'0 0.0
2014-Dec-13 07:32N 37°55' W 122°25'0 0.0
2014-Dec-13 06:32N 37°55' W 122°25'0 0.0
2014-Dec-13 05:26N 37°55' W 122°25'0 0.0
2014-Dec-13 04:32N 37°55' W 122°25'0 0.0
2014-Dec-13 03:32N 37°55' W 122°25'0 0.0
2014-Dec-13 02:32N 37°55' W 122°25'0 0.0
2014-Dec-13 01:32N 37°55' W 122°25'0 0.0
2014-Dec-13 00:32N 37°55' W 122°25'0 0.0
2014-Dec-12 23:32N 37°55' W 122°25'0 0.0
2014-Dec-12 22:32N 37°55' W 122°25'0 0.0
2014-Dec-12 21:32N 37°55' W 122°25'0 0.0
2014-Dec-12 20:32N 37°55' W 122°25'0 0.0
2014-Dec-12 19:32N 37°55' W 122°25'0 0.0
2014-Dec-12 18:32N 37°55' W 122°25'0 0.0
2014-Dec-12 17:32N 37°55' W 122°25'0 0.0
2014-Dec-12 16:29N 37°55' W 122°25'0 0.0
2014-Dec-12 15:32N 37°55' W 122°25'0 0.3
2014-Dec-12 14:31N 37°55' W 122°25'0 0.1
2014-Dec-12 13:33N 37°55' W 122°25'2 2.4
2014-Dec-12 12:33N 37°55' W 122°22'0 0.0
2014-Dec-12 11:31N 37°55' W 122°22'0 0.0
2014-Dec-12 10:28N 37°55' W 122°22'0 0.0
2014-Dec-12 09:31N 37°55' W 122°22'0 0.0
2014-Dec-12 08:31N 37°55' W 122°22'0 0.0
2014-Dec-12 07:31N 37°55' W 122°22'0 0.0
2014-Dec-12 06:31N 37°55' W 122°22'0 0.0
2014-Dec-12 05:31N 37°55' W 122°22'0 0.0
2014-Dec-12 04:28N 37°55' W 122°22'0 0.0
2014-Dec-12 03:31N 37°55' W 122°22'0 0.0
2014-Dec-12 02:31N 37°55' W 122°22'0 0.0
2014-Dec-12 01:31N 37°55' W 122°22'0 0.0
2014-Dec-12 00:31N 37°55' W 122°22'0 0.0
2014-Dec-11 23:31N 37°55' W 122°22'0 0.0
2014-Dec-11 22:31N 37°55' W 122°22'0 0.0
2014-Dec-11 21:31N 37°55' W 122°22'0 0.0
2014-Dec-11 20:28N 37°55' W 122°22'0 0.0
2014-Dec-11 19:31N 37°55' W 122°22'0 0.0
2014-Dec-11 18:31N 37°55' W 122°22'0 0.0
2014-Dec-11 17:31N 37°55' W 122°22'0 0.0
2014-Dec-11 16:31N 37°55' W 122°22'0 0.0
2014-Dec-11 15:31N 37°55' W 122°22'0 0.0
2014-Dec-11 14:31N 37°55' W 122°22'0 0.0
2014-Dec-11 13:31N 37°55' W 122°22'0 0.0
2014-Dec-11 12:31N 37°55' W 122°22'0 0.0
2014-Dec-11 11:31N 37°55' W 122°22'0 0.0
2014-Dec-11 10:31N 37°55' W 122°22'0 0.0
2014-Dec-11 09:31N 37°55' W 122°22'0 0.0
2014-Dec-11 08:31N 37°55' W 122°22'0 0.0
2014-Dec-11 07:31N 37°55' W 122°22'0 0.0
2014-Dec-11 06:31N 37°55' W 122°22'0 0.0
2014-Dec-11 05:31N 37°55' W 122°22'0 0.0
2014-Dec-11 04:31N 37°55' W 122°22'0 0.0
2014-Dec-11 03:31N 37°55' W 122°22'1 0.6
2014-Dec-11 02:33N 37°54' W 122°22'5 4.6
2014-Dec-11 01:33N 37°58' W 122°26'12 9.9
2014-Dec-11 00:22N 38°04' W 122°13'6 0.3
2014-Dec-10 08:06N 38°03' W 122°06'3 4.8
2014-Dec-10 07:33N 38°02' W 122°09'6 5.7
2014-Dec-10 06:33N 38°04' W 122°16'6 6.2
2014-Dec-10 05:33N 38°01' W 122°23'6 5.8
2014-Dec-10 04:33N 37°56' W 122°25'1 0.5
2014-Dec-10 03:29N 37°55' W 122°25'0 0.0
2014-Dec-10 02:32N 37°55' W 122°25'0 0.0
2014-Dec-10 01:32N 37°55' W 122°25'0 0.0
2014-Dec-10 00:32N 37°55' W 122°25'0 0.0
2014-Dec-09 23:26N 37°55' W 122°25'0 0.0
2014-Dec-09 22:32N 37°55' W 122°25'0 0.0
2014-Dec-09 21:32N 37°55' W 122°25'  
Track history (hours):
 
Tides and Currents Weather Stations Pressure Air Temp Water Temp Dewpoint Dewpoint Depression Visibility Wind Speed Wind Dir Waves Ship Positions

Cochise

Owner: Sause Bros, Coos Bay, OR. More information available from US FCC via Universal Licensing System and Coast Guard Vessel Documentation Center.

Last reported at 2014-Dec-19 21:29 UTC. Time now 2014-Dec-19 21:41 UTC.
Position N 38°03' W 122°06'.

Length 32 m; draft 4.5 m.

Type: Towing. MMSI: 367304990.

Date/timePositionNaut miles runAvg speedWind from/ knotsBaromVisibWave heightAir tempDewpointWater temp
2014-Dec-19 21:29N 38°03' W 122°06'2 2.3
2014-Dec-19 20:33N 38°02' W 122°08'8 8.3
2014-Dec-19 19:33N 38°03' W 122°19'9 8.6
2014-Dec-19 18:33N 37°57' W 122°26'2 1.5
2014-Dec-19 17:28N 37°55' W 122°25'0 0.0
2014-Dec-19 16:31N 37°55' W 122°25'0 0.0
2014-Dec-19 15:31N 37°55' W 122°25'0 0.0
2014-Dec-19 14:31N 37°55' W 122°25'0 0.0
2014-Dec-19 13:31N 37°55' W 122°25'0 0.0
2014-Dec-19 12:31N 37°55' W 122°25'0 0.0
2014-Dec-19 11:31N 37°55' W 122°25'0 0.0
2014-Dec-19 10:31N 37°55' W 122°25'0 0.0
2014-Dec-19 09:31N 37°55' W 122°25'0 0.0
2014-Dec-19 08:31N 37°55' W 122°25'0 0.0
2014-Dec-19 07:31N 37°55' W 122°25'0 0.0
2014-Dec-19 06:31N 37°55' W 122°25'0 0.0
2014-Dec-19 05:31N 37°55' W 122°25'0 0.0
2014-Dec-19 04:31N 37°55' W 122°25'0 0.0
2014-Dec-19 03:31N 37°55' W 122°25'0 0.0
2014-Dec-19 02:31N 37°55' W 122°25'0 0.0
2014-Dec-19 01:31N 37°55' W 122°25'0 0.0
2014-Dec-19 00:31N 37°55' W 122°25'0 0.0
2014-Dec-18 23:31N 37°55' W 122°25'0 0.0
2014-Dec-18 22:31N 37°55' W 122°25'0 0.0
2014-Dec-18 21:31N 37°55' W 122°25'0 0.0
2014-Dec-18 20:31N 37°55' W 122°25'0 0.0
2014-Dec-18 19:31N 37°55' W 122°25'0 0.3
2014-Dec-18 18:34N 37°55' W 122°25'2 1.6
2014-Dec-18 17:33N 37°54' W 122°26'8 7.9
2014-Dec-18 16:34N 37°48' W 122°32'9 8.6
2014-Dec-18 15:29N 37°41' W 122°39'318 6.9
2014-Dec-16 17:31N 33°45' W 118°16'0 0.2
2014-Dec-16 16:22N 33°45' W 118°17'0 0.0
2014-Dec-16 13:13N 33°45' W 118°17'0 0.0
2014-Dec-16 09:28N 33°45' W 118°17'0 0.0
2014-Dec-16 08:04N 33°45' W 118°17'0 0.0
2014-Dec-16 07:16N 33°45' W 118°17'0 0.0
2014-Dec-16 06:31N 33°45' W 118°17'0 0.0
2014-Dec-16 04:22N 33°45' W 118°17'0 0.0
2014-Dec-15 21:07N 33°45' W 118°17'0 0.2
2014-Dec-15 20:32N 33°45' W 118°17'209 6.6
2014-Dec-14 13:06N 35°24' W 121°60'5 8.8
2014-Dec-14 12:33N 35°29' W 122°02'9 8.6
2014-Dec-14 11:33N 35°36' W 122°08'9 8.6
2014-Dec-14 10:32N 35°43' W 122°14'9 8.8
2014-Dec-14 09:33N 35°51' W 122°19'9 8.8
2014-Dec-14 08:33N 35°58' W 122°25'9 9.0
2014-Dec-14 07:33N 36°06' W 122°30'9 9.0
2014-Dec-14 06:33N 36°15' W 122°34'9 9.4
2014-Dec-14 05:33N 36°23' W 122°38'9 9.1
2014-Dec-14 04:31N 36°32' W 122°42'9 9.0
2014-Dec-14 03:29N 36°41' W 122°47'11 9.0
2014-Dec-14 02:17N 36°51' W 122°51'48 8.3
2014-Dec-13 20:33N 37°39' W 122°47'8 8.4
2014-Dec-13 19:33N 37°45' W 122°40'9 9.0
2014-Dec-13 18:33N 37°49' W 122°30'6 6.5
2014-Dec-13 17:34N 37°55' W 122°26'1 1.0
2014-Dec-13 16:32N 37°55' W 122°25'0 0.0
2014-Dec-13 15:32N 37°55' W 122°25'0 0.0
2014-Dec-13 14:32N 37°55' W 122°25'0 0.0
2014-Dec-13 13:32N 37°55' W 122°25'0 0.0
2014-Dec-13 12:32N 37°55' W 122°25'0 0.0
2014-Dec-13 11:32N 37°55' W 122°25'0 0.0
2014-Dec-13 10:32N 37°55' W 122°25'0 0.0
2014-Dec-13 09:32N 37°55' W 122°25'0 0.0
2014-Dec-13 08:32N 37°55' W 122°25'0 0.0
2014-Dec-13 07:32N 37°55' W 122°25'0 0.0
2014-Dec-13 06:32N 37°55' W 122°25'0 0.0
2014-Dec-13 05:26N 37°55' W 122°25'0 0.0
2014-Dec-13 04:32N 37°55' W 122°25'0 0.0
2014-Dec-13 03:32N 37°55' W 122°25'0 0.0
2014-Dec-13 02:32N 37°55' W 122°25'0 0.0
2014-Dec-13 01:32N 37°55' W 122°25'0 0.0
2014-Dec-13 00:32N 37°55' W 122°25'0 0.0
2014-Dec-12 23:32N 37°55' W 122°25'0 0.0
2014-Dec-12 22:32N 37°55' W 122°25'0 0.0
2014-Dec-12 21:32N 37°55' W 122°25'0 0.0
2014-Dec-12 20:32N 37°55' W 122°25'0 0.0
2014-Dec-12 19:32N 37°55' W 122°25'0 0.0
2014-Dec-12 18:32N 37°55' W 122°25'0 0.0
2014-Dec-12 17:32N 37°55' W 122°25'0 0.0
2014-Dec-12 16:29N 37°55' W 122°25'0 0.0
2014-Dec-12 15:32N 37°55' W 122°25'0 0.3
2014-Dec-12 14:31N 37°55' W 122°25'0 0.1
2014-Dec-12 13:33N 37°55' W 122°25'2 2.4
2014-Dec-12 12:33N 37°55' W 122°22'0 0.0
2014-Dec-12 11:31N 37°55' W 122°22'0 0.0
2014-Dec-12 10:28N 37°55' W 122°22'0 0.0
2014-Dec-12 09:31N 37°55' W 122°22'0 0.0
2014-Dec-12 08:31N 37°55' W 122°22'0 0.0
2014-Dec-12 07:31N 37°55' W 122°22'0 0.0
2014-Dec-12 06:31N 37°55' W 122°22'0 0.0
2014-Dec-12 05:31N 37°55' W 122°22'0 0.0
2014-Dec-12 04:28N 37°55' W 122°22'0 0.0
2014-Dec-12 03:31N 37°55' W 122°22'0 0.0
2014-Dec-12 02:31N 37°55' W 122°22'0 0.0
2014-Dec-12 01:31N 37°55' W 122°22'0 0.0
2014-Dec-12 00:31N 37°55' W 122°22'0 0.0
2014-Dec-11 23:31N 37°55' W 122°22'0 0.0
2014-Dec-11 22:31N 37°55' W 122°22'0 0.0
2014-Dec-11 21:31N 37°55' W 122°22'0 0.0
2014-Dec-11 20:28N 37°55' W 122°22'0 0.0
2014-Dec-11 19:31N 37°55' W 122°22'0 0.0
2014-Dec-11 18:31N 37°55' W 122°22'0 0.0
2014-Dec-11 17:31N 37°55' W 122°22'0 0.0
2014-Dec-11 16:31N 37°55' W 122°22'0 0.0
2014-Dec-11 15:31N 37°55' W 122°22'0 0.0
2014-Dec-11 14:31N 37°55' W 122°22'0 0.0
2014-Dec-11 13:31N 37°55' W 122°22'0 0.0
2014-Dec-11 12:31N 37°55' W 122°22'0 0.0
2014-Dec-11 11:31N 37°55' W 122°22'0 0.0
2014-Dec-11 10:31N 37°55' W 122°22'0 0.0
2014-Dec-11 09:31N 37°55' W 122°22'0 0.0
2014-Dec-11 08:31N 37°55' W 122°22'0 0.0
2014-Dec-11 07:31N 37°55' W 122°22'0 0.0
2014-Dec-11 06:31N 37°55' W 122°22'0 0.0
2014-Dec-11 05:31N 37°55' W 122°22'0 0.0
2014-Dec-11 04:31N 37°55' W 122°22'0 0.0
2014-Dec-11 03:31N 37°55' W 122°22'1 0.6
2014-Dec-11 02:33N 37°54' W 122°22'5 4.6
2014-Dec-11 01:33N 37°58' W 122°26'12 9.9
2014-Dec-11 00:22N 38°04' W 122°13'6 0.3
2014-Dec-10 08:06N 38°03' W 122°06'3 4.8
2014-Dec-10 07:33N 38°02' W 122°09'6 5.7
2014-Dec-10 06:33N 38°04' W 122°16'6 6.2
2014-Dec-10 05:33N 38°01' W 122°23'6 5.8
2014-Dec-10 04:33N 37°56' W 122°25'1 0.5
2014-Dec-10 03:29N 37°55' W 122°25'0 0.0
2014-Dec-10 02:32N 37°55' W 122°25'0 0.0
2014-Dec-10 01:32N 37°55' W 122°25'0 0.0
2014-Dec-10 00:32N 37°55' W 122°25'0 0.0
2014-Dec-09 23:26N 37°55' W 122°25'0 0.0
2014-Dec-09 22:32N 37°55' W 122°25'0 0.0
2014-Dec-09 21:32N 37°55' W 122°25'  

Dump ship's entire track history